Kezdőlap
METAR-TAF:

METAR-TAF

Repülőterek :

Kimmirut, Nunavut, Kanada

földrajzi szélesség: 62-51N, földrajzi hosszúság: 069-53W, magasság: 53 m

Jelenlegi meteorológiai megfigyelések

A jelentés 1 órával és 12 perccel ezelõtt készült, 14:00 UTC
Különbözõ irányokból fújó szél 3 kt
Hőmérséklet -32°C
Páratartalom 74%
Légköri nyomás 1003 hPa
Látótávolság: 24.1 km
Kevés felhő 1500 lábon
Kevés felhő 3000 lábon

METAR: CYLC 211400Z VRB03KT 15SM FEW015 FEW030 M32/M35 A2962 RMK SC1SC1 SLP041

Idő: 10:12 (15:12 UTC)


TAF: hiányzik

Meteorológiai megfigyelések és előrejelzések több, mint 4000 repülőtéren (METAR és TAF jelentéseket).

A térképen piros és sárga pontok jelzik az elérhető meteorológiai állomásokat.

Mozgassa az egeret a pont fölött, hogy megjelenjen az állomás neve.

Azután kattintson az időjárási megfigyelések és előrejelzések megtekintéséhez.

A térkép megváltoztatása: kattintson a fekete keresztel jelölt zöld gombra ráközelítéshez, a vonallal jelölt zöld gombra távolításhoz, vagy a zöld nyilakra a szomszédos térképek eléréséhez.


METAR-TAF: